Skip Navigation Links Skip Navigation Links

Current Weather

Danville Regional, Danville, Va.

For information only: do not use for flight planning or navigation.
Latest weather
Observation time Friday, December 4, 2020 2:53 AM EST
Local time Friday, December 4, 2020 3:52 AM EST
Flight conditions Visual Meteorological Conditions
Winds
Wind direction South-Southwest (210°)
Wind speed 3 mph
Visibility 10 mi.
Sky condition
Ceiling 11,000 ft. broken clouds
Cloud layer broken clouds 11,000 ft.
Temperature 44°F
Dewpoint 29°F
Altimeter 30.19 in.Hg
Derived measurements
Relative humidity 55%
Wind chill 43°F
Density altitude -653 ft.
Sea-level pressure 30.17 in.Hg
Remarks
Fully automated report.
Automated weather observing station with precipitation discriminator.
METAR KDAN 040753Z AUTO 21003KT 10SM BKN110 07/M02 A3019 RMK AO2 SLP217 T00671017

Settings

Location code

InnerDrive.Weather 4.0.6770.0 Release CLR 4.0.30319.42000
Copyright ©2018 Inner Drive Technology. All rights reserved. Portions Copyright ©1986-2018 David Braverman.

Find weather

Site navigation


Skip Navigation Links

Place info

Page info

PayPal - The safer, easier way to pay online!

Return home.

Copyright ©2020 Inner Drive Technology. Purveyors of fine, hand-crafted computer software. Page printed 2020-12-04T08:52:49 UTC.